createdAt,value
2023-02-20T00:02:00.683Z,87.09
2023-02-20T00:04:27.254Z,87.05
2023-02-20T00:06:53.816Z,87.30
2023-02-20T00:09:20.187Z,87.00
2023-02-20T00:11:46.518Z,87.20
2023-02-20T00:14:12.863Z,87.11
2023-02-20T00:16:39.221Z,87.11
2023-02-20T00:19:05.547Z,87.34
2023-02-20T00:21:32.081Z,87.20
2023-02-20T00:23:58.584Z,87.25
2023-02-20T00:26:25.166Z,87.27
2023-02-20T00:28:51.531Z,87.18
2023-02-20T00:31:17.893Z,87.07
2023-02-20T00:33:44.256Z,86.99
2023-02-20T00:36:11.035Z,87.04
2023-02-20T00:38:37.551Z,87.60
2023-02-20T00:41:03.896Z,87.20
2023-02-20T00:43:30.454Z,87.20
2023-02-20T00:45:57.013Z,87.25
2023-02-20T00:48:23.567Z,87.08
2023-02-20T00:50:49.910Z,87.04
2023-02-20T00:53:16.254Z,87.14
2023-02-20T00:55:45.400Z,87.13
2023-02-20T00:58:11.719Z,87.24
2023-02-20T01:00:38.044Z,87.32
2023-02-20T01:03:04.691Z,87.13
2023-02-20T01:05:31.265Z,87.25
2023-02-20T01:07:57.604Z,86.92
2023-02-20T01:10:24.152Z,87.10
2023-02-20T01:12:50.486Z,87.18
2023-02-20T01:15:16.843Z,87.01
2023-02-20T01:17:43.199Z,87.32
2023-02-20T01:20:09.554Z,87.16
2023-02-20T01:22:35.892Z,87.39
2023-02-20T01:25:02.234Z,87.01
2023-02-20T01:27:28.588Z,87.37
2023-02-20T01:29:55.187Z,87.48
2023-02-20T01:32:21.563Z,87.02
2023-02-20T01:34:47.928Z,87.23
2023-02-20T01:37:14.299Z,87.77
2023-02-20T01:39:40.648Z,87.53
2023-02-20T01:42:07.002Z,87.50
2023-02-20T01:44:33.378Z,87.33
2023-02-20T01:46:59.922Z,87.37
2023-02-20T01:49:26.492Z,87.52
2023-02-20T01:51:52.820Z,87.46
2023-02-20T01:54:19.170Z,87.46
2023-02-20T01:56:45.511Z,87.24
2023-02-20T01:59:12.087Z,87.54
2023-02-20T02:01:38.497Z,88.01
2023-02-20T02:04:04.888Z,87.77
2023-02-20T02:06:31.244Z,87.45
2023-02-20T02:08:57.588Z,87.23
2023-02-20T02:11:23.976Z,87.13
2023-02-20T02:13:50.362Z,87.60
2023-02-20T02:16:16.730Z,87.51
2023-02-20T02:18:43.076Z,87.18
2023-02-20T02:21:09.397Z,87.43
2023-02-20T02:23:35.758Z,87.86
2023-02-20T02:26:02.094Z,87.87
2023-02-20T02:28:28.457Z,87.33
2023-02-20T02:30:54.828Z,87.19
2023-02-20T02:33:21.372Z,87.32
2023-02-20T02:35:47.696Z,87.19
2023-02-20T02:38:14.052Z,87.21
2023-02-20T02:40:40.374Z,87.10
2023-02-20T02:43:07.534Z,87.66
2023-02-20T02:45:33.873Z,87.04
2023-02-20T02:48:00.250Z,87.55
2023-02-20T02:50:26.595Z,87.53
2023-02-20T02:52:52.964Z,87.88
2023-02-20T02:55:19.322Z,87.63
2023-02-20T02:57:45.872Z,88.25
2023-02-20T03:00:12.246Z,88.01
2023-02-20T03:02:39.575Z,88.21
2023-02-20T03:05:05.928Z,88.55
2023-02-20T03:07:32.274Z,88.43
2023-02-20T03:09:58.594Z,88.73
2023-02-20T03:12:24.938Z,88.60
2023-02-20T03:14:51.281Z,88.47
2023-02-20T03:17:17.643Z,88.74
2023-02-20T03:19:43.995Z,88.68
2023-02-20T03:22:10.364Z,88.48
2023-02-20T03:24:36.921Z,88.75
2023-02-20T03:27:03.279Z,88.67
2023-02-20T03:29:29.619Z,88.63
2023-02-20T03:31:56.089Z,88.71
2023-02-20T03:34:22.708Z,88.60
2023-02-20T03:36:49.055Z,88.31
2023-02-20T03:39:15.394Z,88.60
2023-02-20T03:41:41.747Z,88.73
2023-02-20T03:44:08.101Z,88.59
2023-02-20T03:46:34.676Z,88.52
2023-02-20T03:49:01.027Z,88.45
2023-02-20T03:51:27.360Z,88.63
2023-02-20T03:53:53.720Z,88.43
2023-02-20T03:56:20.108Z,88.32
2023-02-20T03:58:46.437Z,88.58
2023-02-20T04:01:12.808Z,88.54
2023-02-20T04:03:39.196Z,88.59
2023-02-20T04:06:05.555Z,88.54
2023-02-20T04:08:31.933Z,88.46
2023-02-20T04:10:58.283Z,88.58
2023-02-20T04:13:24.622Z,88.54
2023-02-20T04:15:50.997Z,88.60
2023-02-20T04:18:17.341Z,88.69
2023-02-20T04:20:43.700Z,88.52
2023-02-20T04:23:10.251Z,88.48
2023-02-20T04:25:36.602Z,88.38
2023-02-20T04:28:02.937Z,88.50
2023-02-20T04:30:29.352Z,88.63
2023-02-20T04:32:55.747Z,88.63
2023-02-20T04:35:22.106Z,88.40
2023-02-20T04:37:48.446Z,88.47
2023-02-20T04:40:14.780Z,88.42
2023-02-20T04:42:41.137Z,88.29
2023-02-20T04:45:07.714Z,88.31
2023-02-20T04:47:34.053Z,88.00
2023-02-20T04:50:00.400Z,87.86
2023-02-20T04:52:26.747Z,88.30
2023-02-20T04:54:53.093Z,88.05
2023-02-20T04:57:19.638Z,88.09
2023-02-20T04:59:46.222Z,87.73
2023-02-20T05:02:12.603Z,87.79
2023-02-20T05:04:39.008Z,87.76
2023-02-20T05:07:05.382Z,87.54
2023-02-20T05:09:31.730Z,87.63
2023-02-20T05:11:58.126Z,87.44
2023-02-20T05:14:24.496Z,87.35
2023-02-20T05:16:50.863Z,87.55
2023-02-20T05:19:17.188Z,86.90
2023-02-20T05:21:43.529Z,87.25
2023-02-20T05:24:09.920Z,87.44
2023-02-20T05:26:36.490Z,87.05
2023-02-20T05:29:02.824Z,87.46
2023-02-20T05:31:29.262Z,87.33
2023-02-20T05:33:55.645Z,87.18
2023-02-20T05:36:22.006Z,87.26
2023-02-20T05:38:48.654Z,87.31
2023-02-20T05:41:15.039Z,86.63
2023-02-20T05:43:41.402Z,86.97
2023-02-20T05:46:07.941Z,87.44
2023-02-20T05:48:34.292Z,87.00
2023-02-20T05:51:00.655Z,87.12
2023-02-20T05:53:26.996Z,86.54
2023-02-20T05:55:53.333Z,87.03
2023-02-20T05:58:19.689Z,87.13
2023-02-20T06:00:46.048Z,86.79
2023-02-20T06:03:12.402Z,86.63
2023-02-20T06:05:39.891Z,86.48
2023-02-20T06:08:06.218Z,86.68
2023-02-20T06:10:32.583Z,87.10
2023-02-20T06:12:58.925Z,87.10
2023-02-20T06:15:25.294Z,86.74
2023-02-20T06:17:51.641Z,86.69
2023-02-20T06:20:17.982Z,86.54
2023-02-20T06:22:44.336Z,87.01
2023-02-20T06:25:11.526Z,86.72
2023-02-20T06:27:38.420Z,86.54
2023-02-20T06:30:04.780Z,86.51
2023-02-20T06:32:31.141Z,86.52
2023-02-20T06:34:57.533Z,86.54
2023-02-20T06:37:23.912Z,86.37
2023-02-20T06:39:50.487Z,86.62
2023-02-20T06:42:16.847Z,86.32
2023-02-20T06:44:43.219Z,86.29
2023-02-20T06:47:09.578Z,86.18
2023-02-20T06:49:36.166Z,86.04
2023-02-20T06:52:04.198Z,85.90
2023-02-20T06:54:30.978Z,85.89
2023-02-20T06:56:57.352Z,86.02
2023-02-20T06:59:23.686Z,86.07
2023-02-20T07:01:50.045Z,85.25
2023-02-20T07:04:16.472Z,85.81
2023-02-20T07:06:42.869Z,85.74
2023-02-20T07:09:09.222Z,85.92
2023-02-20T07:11:35.592Z,85.79
2023-02-20T07:14:01.936Z,85.79
2023-02-20T07:16:28.264Z,85.66
2023-02-20T07:18:54.657Z,85.82
2023-02-20T07:21:21.032Z,85.69
2023-02-20T07:23:47.395Z,85.77
2023-02-20T07:26:14.091Z,85.68
2023-02-20T07:28:40.542Z,85.51
2023-02-20T07:31:06.917Z,85.31
2023-02-20T07:33:33.260Z,85.67
2023-02-20T07:35:59.627Z,85.35
2023-02-20T07:38:25.997Z,85.15
2023-02-20T07:40:52.351Z,85.34
2023-02-20T07:43:18.717Z,85.52
2023-02-20T07:45:45.105Z,85.29
2023-02-20T07:48:11.524Z,85.17
2023-02-20T07:50:37.874Z,85.31
2023-02-20T07:53:04.213Z,85.47
2023-02-20T07:55:32.659Z,85.32
2023-02-20T07:57:59.016Z,85.23
2023-02-20T08:00:25.352Z,85.32
2023-02-20T08:02:51.724Z,85.45
2023-02-20T08:05:18.057Z,85.26
2023-02-20T08:07:44.434Z,85.73
2023-02-20T08:10:10.805Z,85.51
2023-02-20T08:12:37.152Z,85.47
2023-02-20T08:15:03.497Z,85.52
2023-02-20T08:17:45.352Z,85.70
2023-02-20T08:20:12.669Z,85.38
2023-02-20T08:22:41.941Z,85.45
2023-02-20T08:25:08.690Z,85.83
2023-02-20T08:27:35.075Z,86.01
2023-02-20T08:30:01.525Z,86.04
2023-02-20T08:32:28.097Z,86.05
2023-02-20T08:34:54.589Z,86.41
2023-02-20T08:37:21.447Z,86.64
2023-02-20T08:39:47.788Z,85.66
2023-02-20T08:42:17.342Z,85.97
2023-02-20T08:44:43.726Z,86.17
2023-02-20T08:47:10.078Z,85.89
2023-02-20T08:49:36.435Z,85.83
2023-02-20T08:52:03.518Z,85.87
2023-02-20T08:54:29.846Z,85.96
2023-02-20T08:56:56.171Z,85.68
2023-02-20T08:59:22.777Z,85.54
2023-02-20T09:01:49.187Z,85.22
2023-02-20T09:04:15.558Z,85.41
2023-02-20T09:06:42.419Z,85.28
2023-02-20T09:09:08.761Z,85.30
2023-02-20T09:11:35.237Z,85.16
2023-02-20T09:14:02.093Z,84.98
2023-02-20T09:16:28.446Z,84.86
2023-02-20T09:18:56.529Z,84.88
2023-02-20T09:21:23.900Z,84.76
2023-02-20T09:23:50.310Z,84.72
2023-02-20T09:26:16.682Z,84.75
2023-02-20T09:28:43.296Z,84.68
2023-02-20T09:31:09.689Z,84.62
2023-02-20T09:33:36.054Z,84.57
2023-02-20T09:36:02.452Z,84.53
2023-02-20T09:38:28.828Z,84.50
2023-02-20T09:40:55.224Z,84.43
2023-02-20T09:43:21.603Z,84.36
2023-02-20T09:45:47.958Z,84.59
2023-02-20T09:48:14.326Z,84.52
2023-02-20T09:50:40.888Z,84.34
2023-02-20T09:53:07.660Z,84.35
2023-02-20T09:55:34.000Z,84.29
2023-02-20T09:58:00.365Z,84.32
2023-02-20T10:00:26.978Z,84.27
2023-02-20T10:02:53.396Z,84.25
2023-02-20T10:05:19.796Z,84.12
2023-02-20T10:07:46.132Z,84.16
2023-02-20T10:10:12.501Z,84.21
2023-02-20T10:12:38.851Z,84.30
2023-02-20T10:15:05.170Z,84.20
2023-02-20T10:17:31.520Z,84.30
2023-02-20T10:19:57.892Z,84.24
2023-02-20T10:22:24.249Z,84.25
2023-02-20T10:24:50.608Z,84.32
2023-02-20T10:27:16.959Z,84.41
2023-02-20T10:29:43.280Z,84.43
2023-02-20T10:32:09.699Z,84.71
2023-02-20T10:34:36.101Z,84.48
2023-02-20T10:37:02.753Z,84.60
2023-02-20T10:39:29.149Z,84.84
2023-02-20T10:41:55.564Z,84.69
2023-02-20T10:44:21.914Z,84.53
2023-02-20T10:46:49.727Z,84.75
2023-02-20T10:49:17.339Z,84.54
2023-02-20T10:51:43.710Z,84.66
2023-02-20T10:54:10.038Z,84.71
2023-02-20T10:56:36.394Z,84.54
2023-02-20T10:59:02.979Z,84.64
2023-02-20T11:01:29.524Z,84.85
2023-02-20T11:03:55.998Z,85.00
2023-02-20T11:06:22.418Z,84.74
2023-02-20T11:08:48.754Z,84.90
2023-02-20T11:11:15.086Z,85.21
2023-02-20T11:13:41.421Z,85.45
2023-02-20T11:16:07.784Z,85.02
2023-02-20T11:18:34.130Z,85.22
2023-02-20T11:21:00.481Z,85.22
2023-02-20T11:23:26.834Z,85.24
2023-02-20T11:25:53.229Z,85.38
2023-02-20T11:28:19.600Z,85.25
2023-02-20T11:30:46.129Z,85.06
2023-02-20T11:33:12.574Z,85.09
2023-02-20T11:35:38.903Z,85.40
2023-02-20T11:38:05.223Z,85.21
2023-02-20T11:40:31.580Z,85.15
2023-02-20T11:42:57.956Z,85.28
2023-02-20T11:45:24.314Z,85.67
2023-02-20T11:47:50.652Z,85.81
2023-02-20T11:50:20.059Z,85.49
2023-02-20T11:52:47.174Z,85.64
2023-02-20T11:55:13.505Z,85.86
2023-02-20T11:57:39.876Z,85.90
2023-02-20T12:00:06.456Z,85.84
2023-02-20T12:02:32.853Z,85.69
2023-02-20T12:04:59.227Z,85.66
2023-02-20T12:07:25.561Z,85.50
2023-02-20T12:09:51.905Z,85.90
2023-02-20T12:12:18.251Z,85.90
2023-02-20T12:14:44.584Z,86.01
2023-02-20T12:17:10.911Z,85.96
2023-02-20T12:19:37.260Z,86.33
2023-02-20T12:22:03.601Z,86.14
2023-02-20T12:24:30.159Z,86.27
2023-02-20T12:26:56.540Z,85.94
2023-02-20T12:29:22.896Z,86.03
2023-02-20T12:31:49.309Z,86.00
2023-02-20T12:34:15.714Z,86.05
2023-02-20T12:36:42.078Z,86.21
2023-02-20T12:39:08.411Z,86.21
2023-02-20T12:41:34.747Z,86.36
2023-02-20T12:44:12.981Z,86.38
2023-02-20T12:46:40.061Z,86.27
2023-02-20T12:49:06.398Z,86.12
2023-02-20T12:51:32.758Z,86.08
2023-02-20T12:53:59.120Z,86.08
2023-02-20T12:56:25.483Z,86.20
2023-02-20T12:58:51.824Z,86.26
2023-02-20T13:01:22.809Z,86.35
2023-02-20T13:03:54.222Z,86.22
2023-02-20T13:06:20.608Z,86.23
2023-02-20T13:08:46.963Z,86.17
2023-02-20T13:11:13.351Z,86.56
2023-02-20T13:13:39.708Z,86.32
2023-02-20T13:16:06.075Z,86.54
2023-02-20T13:18:32.469Z,86.29
2023-02-20T13:20:58.852Z,86.00
2023-02-20T13:23:25.209Z,86.05
2023-02-20T13:25:51.778Z,85.53
2023-02-20T13:28:18.118Z,85.60
2023-02-20T13:30:44.459Z,85.35
2023-02-20T13:33:10.815Z,85.48
2023-02-20T13:35:37.171Z,85.31
2023-02-20T13:38:03.754Z,85.26
2023-02-20T13:40:30.092Z,85.07
2023-02-20T13:42:56.683Z,85.21
2023-02-20T13:45:23.025Z,84.86
2023-02-20T13:47:49.385Z,84.73
2023-02-20T13:50:15.730Z,84.80
2023-02-20T13:52:43.061Z,84.64
2023-02-20T13:55:09.419Z,84.68
2023-02-20T13:57:35.759Z,84.55
2023-02-20T14:00:02.127Z,84.69
2023-02-20T14:02:28.490Z,84.71
2023-02-20T14:04:55.173Z,84.56
2023-02-20T14:07:21.571Z,84.63
2023-02-20T14:09:47.990Z,84.69
2023-02-20T14:12:14.370Z,84.69
2023-02-20T14:14:40.735Z,84.76
2023-02-20T14:17:07.082Z,84.77
2023-02-20T14:19:33.416Z,84.86
2023-02-20T14:21:59.766Z,84.87
2023-02-20T14:24:26.378Z,84.89
2023-02-20T14:26:52.713Z,84.87
2023-02-20T14:29:19.112Z,84.93
2023-02-20T14:31:45.573Z,84.99
2023-02-20T14:34:12.007Z,84.97
2023-02-20T14:36:38.616Z,85.02
2023-02-20T14:39:05.019Z,85.08
2023-02-20T14:41:31.467Z,85.04
2023-02-20T14:43:57.835Z,85.10
2023-02-20T14:46:24.393Z,85.13
2023-02-20T14:48:50.837Z,85.08
2023-02-20T14:51:17.237Z,85.21
2023-02-20T14:53:43.669Z,85.23
2023-02-20T14:56:10.144Z,85.20
2023-02-20T14:58:36.542Z,85.26
2023-02-20T15:01:02.972Z,85.24
2023-02-20T15:03:30.915Z,85.32
2023-02-20T15:05:57.502Z,85.30
2023-02-20T15:08:23.829Z,85.36
2023-02-20T15:10:50.200Z,85.40
2023-02-20T15:13:16.779Z,85.37
2023-02-20T15:15:43.156Z,85.44
2023-02-20T15:18:09.534Z,85.48
2023-02-20T15:20:35.911Z,85.48
2023-02-20T15:23:10.358Z,85.50
2023-02-20T15:25:41.284Z,85.55
2023-02-20T15:28:07.635Z,85.51
2023-02-20T15:30:34.164Z,85.54
2023-02-20T15:33:00.605Z,85.61
2023-02-20T15:35:27.002Z,85.63
2023-02-20T15:37:53.405Z,85.62
2023-02-20T15:40:19.996Z,85.68
2023-02-20T15:42:46.368Z,85.66
2023-02-20T15:45:12.726Z,85.73
2023-02-20T15:47:39.054Z,85.69
2023-02-20T15:50:05.401Z,85.77
2023-02-20T15:52:31.772Z,85.73
2023-02-20T15:54:58.151Z,85.75
2023-02-20T15:57:24.469Z,85.74
2023-02-20T15:59:50.975Z,85.77
2023-02-20T16:02:17.613Z,85.80
2023-02-20T16:04:44.101Z,85.78
2023-02-20T16:07:10.472Z,85.84
2023-02-20T16:09:36.817Z,85.84
2023-02-20T16:12:03.165Z,85.80
2023-02-20T16:14:29.532Z,85.83
2023-02-20T16:16:55.904Z,85.86
2023-02-20T16:19:30.547Z,85.87
2023-02-20T16:22:03.222Z,85.88
2023-02-20T16:24:29.813Z,85.92
2023-02-20T16:26:56.172Z,85.88
2023-02-20T16:29:22.519Z,85.87
2023-02-20T16:31:48.958Z,85.86
2023-02-20T16:34:21.616Z,85.87
2023-02-20T16:36:48.262Z,85.87
2023-02-20T16:39:24.592Z,85.87
2023-02-20T16:41:52.452Z,85.85
2023-02-20T16:44:18.804Z,85.86
2023-02-20T16:46:45.389Z,85.87
2023-02-20T16:49:11.733Z,85.83
2023-02-20T16:51:38.060Z,85.76
2023-02-20T16:54:04.449Z,85.74
2023-02-20T16:56:30.852Z,85.75
2023-02-20T16:58:57.220Z,85.78
2023-02-20T17:01:23.650Z,85.72
2023-02-20T17:03:50.042Z,85.68
2023-02-20T17:06:16.426Z,85.68
2023-02-20T17:08:42.993Z,85.60
2023-02-20T17:11:09.320Z,85.58
2023-02-20T17:13:35.682Z,85.54
2023-02-20T17:16:02.074Z,85.46
2023-02-20T17:18:28.441Z,85.42
2023-02-20T17:20:55.277Z,85.29
2023-02-20T17:23:21.637Z,85.21
2023-02-20T17:25:48.183Z,85.22
2023-02-20T17:28:14.510Z,85.06
2023-02-20T17:30:40.984Z,85.04
2023-02-20T17:33:07.374Z,85.04
2023-02-20T17:35:33.744Z,85.09
2023-02-20T17:38:00.126Z,85.02
2023-02-20T17:40:26.487Z,84.99
2023-02-20T17:42:53.101Z,85.02
2023-02-20T17:45:19.488Z,85.04
2023-02-20T17:47:45.847Z,84.95
2023-02-20T17:50:12.209Z,84.95
2023-02-20T17:52:38.570Z,85.08
2023-02-20T17:55:04.973Z,85.05
2023-02-20T17:57:31.311Z,84.95
2023-02-20T17:59:57.876Z,84.94
2023-02-20T18:02:24.247Z,85.05
2023-02-20T18:04:50.607Z,84.91
2023-02-20T18:07:16.997Z,84.92
2023-02-20T18:09:43.345Z,85.03
2023-02-20T18:12:10.317Z,84.97
2023-02-20T18:14:36.651Z,84.94
2023-02-20T18:17:03.026Z,84.97
2023-02-20T18:19:29.401Z,84.85
2023-02-20T18:21:55.728Z,84.99
2023-02-20T18:24:24.084Z,84.93
2023-02-20T18:26:50.682Z,84.97
2023-02-20T18:29:17.239Z,84.98
2023-02-20T18:31:43.723Z,85.04
2023-02-20T18:34:10.122Z,84.96
2023-02-20T18:36:36.480Z,85.05
2023-02-20T18:39:02.835Z,84.99
2023-02-20T18:41:29.167Z,84.88
2023-02-20T18:43:55.505Z,84.86
2023-02-20T18:46:22.087Z,84.79
2023-02-20T18:48:48.440Z,84.88
2023-02-20T18:51:14.805Z,84.90
2023-02-20T18:53:41.171Z,84.88
2023-02-20T18:56:07.529Z,84.78
2023-02-20T18:58:33.868Z,84.63
2023-02-20T19:01:00.320Z,84.69
2023-02-20T19:03:26.686Z,84.53
2023-02-20T19:05:53.046Z,84.73
2023-02-20T19:08:20.637Z,84.97
2023-02-20T19:10:48.543Z,84.76
2023-02-20T19:13:15.123Z,84.88
2023-02-20T19:15:41.477Z,84.80
2023-02-20T19:18:07.836Z,84.49
2023-02-20T19:20:34.186Z,84.15
2023-02-20T19:23:00.603Z,84.43
2023-02-20T19:25:27.088Z,84.49
2023-02-20T19:27:53.484Z,84.64
2023-02-20T19:30:20.089Z,84.47
2023-02-20T19:32:46.457Z,84.42
2023-02-20T19:35:13.044Z,84.60
2023-02-20T19:37:39.418Z,84.54
2023-02-20T19:40:05.755Z,84.60
2023-02-20T19:42:32.103Z,84.44
2023-02-20T19:44:58.454Z,84.86
2023-02-20T19:47:24.789Z,84.68
2023-02-20T19:49:51.143Z,84.57
2023-02-20T19:52:17.754Z,84.66
2023-02-20T19:54:44.117Z,84.39
2023-02-20T19:57:10.440Z,84.92
2023-02-20T19:59:36.788Z,84.62
2023-02-20T20:02:03.195Z,84.97
2023-02-20T20:04:29.595Z,84.88
2023-02-20T20:06:55.933Z,85.08
2023-02-20T20:09:35.229Z,85.44
2023-02-20T20:12:02.543Z,85.45
2023-02-20T20:14:28.882Z,85.27
2023-02-20T20:16:55.329Z,85.35
2023-02-20T20:19:21.740Z,85.50
2023-02-20T20:21:48.076Z,85.35
2023-02-20T20:24:14.439Z,85.77
2023-02-20T20:26:40.820Z,85.70
2023-02-20T20:29:07.176Z,85.48
2023-02-20T20:31:33.565Z,85.59
2023-02-20T20:34:00.185Z,85.08
2023-02-20T20:36:26.517Z,85.06
2023-02-20T20:38:52.858Z,84.96
2023-02-20T20:41:19.244Z,85.75
2023-02-20T20:43:45.603Z,85.33
2023-02-20T20:46:11.981Z,85.45
2023-02-20T20:48:38.410Z,85.10
2023-02-20T20:51:04.751Z,85.30
2023-02-20T20:53:31.128Z,85.56
2023-02-20T20:55:57.509Z,85.32
2023-02-20T20:58:23.842Z,85.34
2023-02-20T21:00:50.178Z,85.86
2023-02-20T21:03:16.552Z,85.73
2023-02-20T21:05:43.115Z,85.25
2023-02-20T21:08:09.449Z,86.65
2023-02-20T21:10:35.767Z,86.35
2023-02-20T21:13:02.100Z,86.48
2023-02-20T21:15:28.473Z,86.00
2023-02-20T21:17:54.810Z,86.16
2023-02-20T21:20:21.149Z,86.08
2023-02-20T21:22:47.492Z,86.29
2023-02-20T21:25:13.833Z,86.21
2023-02-20T21:27:40.184Z,86.29
2023-02-20T21:30:06.576Z,86.84
2023-02-20T21:32:32.933Z,86.97
2023-02-20T21:34:59.504Z,86.80
2023-02-20T21:37:25.828Z,86.65
2023-02-20T21:39:54.153Z,86.05
2023-02-20T21:42:20.717Z,87.53
2023-02-20T21:44:47.068Z,86.99
2023-02-20T21:47:13.424Z,87.17
2023-02-20T21:49:39.788Z,87.05
2023-02-20T21:52:06.131Z,86.81
2023-02-20T21:54:32.469Z,86.70
2023-02-20T21:56:58.822Z,87.75
2023-02-20T21:59:25.199Z,87.98
2023-02-20T22:01:51.802Z,87.85
2023-02-20T22:04:18.172Z,87.71
2023-02-20T22:06:44.532Z,87.70
2023-02-20T22:09:10.864Z,87.98
2023-02-20T22:11:37.194Z,88.02
2023-02-20T22:14:03.558Z,87.20
2023-02-20T22:16:29.909Z,87.90
2023-02-20T22:18:56.469Z,87.95
2023-02-20T22:21:22.810Z,88.24
2023-02-20T22:23:49.161Z,88.26
2023-02-20T22:26:15.540Z,88.19
2023-02-20T22:28:41.928Z,88.19
2023-02-20T22:31:08.470Z,88.12
2023-02-20T22:33:34.915Z,88.27
2023-02-20T22:36:01.275Z,88.38
2023-02-20T22:38:27.604Z,88.33
2023-02-20T22:40:54.284Z,88.31
2023-02-20T22:43:20.677Z,88.33
2023-02-20T22:45:47.063Z,88.42
2023-02-20T22:48:13.436Z,88.36
2023-02-20T22:50:39.787Z,88.15
2023-02-20T22:53:06.139Z,88.23
2023-02-20T22:55:32.488Z,88.15
2023-02-20T22:57:58.826Z,88.31
2023-02-20T23:00:25.181Z,88.13
2023-02-20T23:02:51.766Z,88.37
2023-02-20T23:05:18.084Z,88.25
2023-02-20T23:07:44.444Z,88.19
2023-02-20T23:10:10.817Z,88.17
2023-02-20T23:12:37.246Z,87.96
2023-02-20T23:15:03.631Z,87.94
2023-02-20T23:17:36.371Z,87.93
2023-02-20T23:20:03.951Z,88.32
2023-02-20T23:22:30.312Z,88.04
2023-02-20T23:24:56.668Z,87.83
2023-02-20T23:27:23.037Z,88.00
2023-02-20T23:29:49.367Z,87.54
2023-02-20T23:32:15.802Z,87.40
2023-02-20T23:34:42.203Z,87.56
2023-02-20T23:37:08.567Z,87.79
2023-02-20T23:39:34.924Z,87.96
2023-02-20T23:42:01.479Z,87.92
2023-02-20T23:44:27.804Z,87.52
2023-02-20T23:46:54.132Z,87.21
2023-02-20T23:49:20.509Z,87.15
2023-02-20T23:51:46.897Z,86.99
2023-02-20T23:54:13.222Z,87.02
2023-02-20T23:56:39.591Z,86.75
2023-02-20T23:59:06.280Z,86.68
